Time;durP1;ratioP1;P1;durP2;ratioP2;P2;SDS_P1;SDS_P2;PMS_P1;PMS_P2;Temp;Humidity;BMP_temperature;BMP_pressure;BME280_temperature;BME280_humidity;BME280_pressure;Samples;Min_cycle;Max_cycle;Signal;HPM_P1;HPM_P2
2023/07/04 00:02:13;;;;;;;7.83;3.23;;;;;;;;;;5010883;28;20473;-63
2023/07/04 00:04:41;;;;;;;5.30;3.50;;;;;;;;;;5012297;28;20040;-63
2023/07/04 00:07:06;;;;;;;7.95;3.42;;;;;;;;;;5010266;28;20458;-64
2023/07/04 00:09:32;;;;;;;2.30;2.10;;;;;;;;;;5012494;28;20046;-64
2023/07/04 00:11:58;;;;;;;3.60;2.35;;;;;;;;;;5010748;28;20092;-64
2023/07/04 00:14:23;;;;;;;4.03;2.67;;;;;;;;;;5012161;28;20096;-63
2023/07/04 00:16:48;;;;;;;8.87;3.30;;;;;;;;;;5011069;28;20045;-62
2023/07/04 00:19:14;;;;;;;2.60;2.07;;;;;;;;;;5011550;28;20440;-63
2023/07/04 00:21:41;;;;;;;5.28;3.35;;;;;;;;;;5010322;28;21034;-63
2023/07/04 00:24:06;;;;;;;10.35;4.80;;;;;;;;;;5011833;28;20096;-63
2023/07/04 00:26:31;;;;;;;7.00;3.37;;;;;;;;;;5010665;28;20125;-62
2023/07/04 00:28:57;;;;;;;6.20;2.60;;;;;;;;;;5011416;28;20489;-62
2023/07/04 00:31:23;;;;;;;14.02;3.45;;;;;;;;;;5010857;28;20033;-63
2023/07/04 00:33:48;;;;;;;5.78;2.70;;;;;;;;;;5011687;28;20021;-63
2023/07/04 00:36:16;;;;;;;9.10;3.27;;;;;;;;;;5009885;28;20373;-60
2023/07/04 00:38:41;;;;;;;6.90;3.60;;;;;;;;;;5011729;28;20541;-63
2023/07/04 00:41:11;;;;;;;13.63;4.32;;;;;;;;;;5011742;28;20097;-63
2023/07/04 00:44:19;;;;;;;5.43;3.33;;;;;;;;;;5009186;28;20029;-62
2023/07/04 00:46:45;;;;;;;;;;;;;;;;;;5011088;28;20092;-62
2023/07/04 00:49:17;;;;;;;8.60;3.88;;;;;;;;;;5011299;28;19905;-63
2023/07/04 00:51:45;;;;;;;8.45;3.30;;;;;;;;;;5009876;28;20113;-63
2023/07/04 00:54:10;;;;;;;5.95;3.78;;;;;;;;;;5011087;28;20428;-63
2023/07/04 00:56:36;;;;;;;8.75;5.10;;;;;;;;;;5010155;28;20034;-63
2023/07/04 00:59:01;;;;;;;14.00;5.32;;;;;;;;;;5011114;28;20026;-62
2023/07/04 01:01:27;;;;;;;9.52;3.03;;;;;;;;;;5010274;28;20466;-62
2023/07/04 01:03:53;;;;;;;13.85;4.57;;;;;;;;;;5010839;28;20080;-63
2023/07/04 01:06:40;;;;;;;10.55;3.97;;;;;;;;;;5009375;28;20125;-62
2023/07/04 01:09:07;;;;;;;6.00;2.83;;;;;;;;;;5011158;28;20053;-62
2023/07/04 01:11:34;;;;;;;14.35;3.53;;;;;;;;;;5009972;28;20041;-63
2023/07/04 01:14:03;;;;;;;7.65;3.92;;;;;;;;;;5010754;28;20101;-63
2023/07/04 01:16:29;;;;;;;7.07;2.95;;;;;;;;;;5010068;28;20021;-62
2023/07/04 01:18:56;;;;;;;9.85;3.13;;;;;;;;;;5011063;28;20018;-63
2023/07/04 01:21:23;;;;;;;7.82;5.05;;;;;;;;;;5009170;28;20034;-62
2023/07/04 01:23:54;;;;;;;11.25;3.90;;;;;;;;;;5011057;28;20484;-63
2023/07/04 01:26:24;;;;;;;7.82;4.28;;;;;;;;;;5009631;28;20030;-62
2023/07/04 01:28:53;;;;;;;8.35;2.75;;;;;;;;;;5010636;28;20022;-63
2023/07/04 01:31:20;;;;;;;5.15;3.42;;;;;;;;;;5009952;28;20018;-63
2023/07/04 01:33:47;;;;;;;13.43;4.13;;;;;;;;;;5010911;28;20515;-63
2023/07/04 01:36:14;;;;;;;10.20;3.85;;;;;;;;;;5010551;28;20101;-63
2023/07/04 01:38:40;;;;;;;10.13;3.40;;;;;;;;;;5009443;28;20041;-62
2023/07/04 01:41:05;;;;;;;11.37;4.10;;;;;;;;;;5010608;28;20014;-62
2023/07/04 01:43:30;;;;;;;9.50;4.13;;;;;;;;;;5009459;28;20054;-62
2023/07/04 01:45:55;;;;;;;8.18;3.60;;;;;;;;;;5010628;28;20037;-63
2023/07/04 01:48:20;;;;;;;5.88;3.00;;;;;;;;;;5009345;28;20056;-63
2023/07/04 01:50:45;;;;;;;4.88;2.80;;;;;;;;;;5010649;28;20022;-63
2023/07/04 01:53:11;;;;;;;12.90;4.30;;;;;;;;;;5008995;28;20038;-63
2023/07/04 01:55:36;;;;;;;7.50;4.20;;;;;;;;;;5012886;28;20098;-62
2023/07/04 01:58:01;;;;;;;12.45;5.65;;;;;;;;;;5012850;28;20604;-62
2023/07/04 02:00:26;;;;;;;12.60;4.87;;;;;;;;;;5014649;28;20029;-63
2023/07/04 02:02:51;;;;;;;7.83;4.47;;;;;;;;;;5012875;28;20480;-63
2023/07/04 02:05:19;;;;;;;7.57;3.10;;;;;;;;;;5014243;28;20046;-62
2023/07/04 02:07:44;;;;;;;6.57;4.22;;;;;;;;;;5013120;28;20060;-62
2023/07/04 02:10:09;;;;;;;11.13;3.92;;;;;;;;;;5014413;28;20439;-62
2023/07/04 02:12:35;;;;;;;6.43;2.97;;;;;;;;;;5012593;28;20038;-61
2023/07/04 02:15:00;;;;;;;7.65;3.53;;;;;;;;;;5014467;28;20022;-62
2023/07/04 02:17:25;;;;;;;6.50;4.40;;;;;;;;;;5012856;28;20040;-62
2023/07/04 02:19:51;;;;;;;16.58;4.78;;;;;;;;;;5013863;28;20108;-62
2023/07/04 02:22:17;;;;;;;12.02;4.15;;;;;;;;;;5012816;28;20045;-62
2023/07/04 02:24:42;;;;;;;6.60;3.95;;;;;;;;;;5014647;28;20029;-62
2023/07/04 02:27:07;;;;;;;7.95;4.25;;;;;;;;;;5012212;28;20042;-62
2023/07/04 02:29:32;;;;;;;16.57;4.93;;;;;;;;;;5014202;28;20049;-62
2023/07/04 02:31:57;;;;;;;12.07;4.32;;;;;;;;;;5012682;28;20397;-62
2023/07/04 02:34:22;;;;;;;7.80;4.22;;;;;;;;;;5013947;28;20456;-61
2023/07/04 02:36:48;;;;;;;12.63;5.00;;;;;;;;;;5012884;28;20034;-61
2023/07/04 02:39:13;;;;;;;9.70;3.20;;;;;;;;;;5013764;28;20481;-62
2023/07/04 02:41:39;;;;;;;12.85;4.97;;;;;;;;;;5011995;28;20045;-63
2023/07/04 02:44:04;;;;;;;9.87;6.20;;;;;;;;;;5013606;28;20049;-62
2023/07/04 02:46:29;;;;;;;8.57;4.57;;;;;;;;;;5012546;28;20038;-62
2023/07/04 02:48:54;;;;;;;5.75;3.53;;;;;;;;;;5013321;28;20505;-62
2023/07/04 02:51:19;;;;;;;13.13;5.07;;;;;;;;;;5012499;28;20014;-61
2023/07/04 02:53:44;;;;;;;17.57;6.50;;;;;;;;;;5013634;28;20408;-62
2023/07/04 02:56:11;;;;;;;9.43;3.77;;;;;;;;;;5011404;28;20029;-61
2023/07/04 02:58:36;;;;;;;10.57;3.58;;;;;;;;;;5013783;28;20014;-62
2023/07/04 03:01:03;;;;;;;7.55;3.88;;;;;;;;;;5013289;28;20559;-62
2023/07/04 03:03:28;;;;;;;13.02;5.30;;;;;;;;;;5011861;28;20072;-62
2023/07/04 03:05:53;;;;;;;5.57;4.18;;;;;;;;;;5013074;28;20096;-62
2023/07/04 03:08:18;;;;;;;10.73;4.50;;;;;;;;;;5011268;28;20054;-63
2023/07/04 03:10:44;;;;;;;9.48;3.88;;;;;;;;;;5013127;28;20479;-63
2023/07/04 03:13:10;;;;;;;19.88;5.00;;;;;;;;;;5011742;28;20045;-63
2023/07/04 03:15:35;;;;;;;14.30;6.22;;;;;;;;;;5013451;28;20079;-63
2023/07/04 03:18:01;;;;;;;9.50;4.93;;;;;;;;;;5011171;28;20030;-62
2023/07/04 03:20:27;;;;;;;12.13;4.10;;;;;;;;;;5012972;28;20029;-63
2023/07/04 03:22:52;;;;;;;8.98;5.00;;;;;;;;;;5011744;28;20110;-62
2023/07/04 03:25:17;;;;;;;13.65;5.32;;;;;;;;;;5012942;28;20018;-62
2023/07/04 03:27:42;;;;;;;14.27;5.78;;;;;;;;;;5011620;28;20056;-62
2023/07/04 03:30:09;;;;;;;14.70;7.07;;;;;;;;;;5012937;28;20072;-62
2023/07/04 03:32:34;;;;;;;9.15;4.97;;;;;;;;;;5011005;28;20034;-62
2023/07/04 03:35:02;;;;;;;14.10;5.60;;;;;;;;;;5012811;28;20024;-62
2023/07/04 03:37:28;;;;;;;10.85;4.78;;;;;;;;;;5011457;28;20444;-62
2023/07/04 03:39:53;;;;;;;16.15;7.55;;;;;;;;;;5012687;28;20535;-62
2023/07/04 03:42:18;;;;;;;17.63;4.90;;;;;;;;;;5011227;28;20052;-62
2023/07/04 03:44:44;;;;;;;14.80;5.90;;;;;;;;;;5012463;28;20026;-62
2023/07/04 03:47:09;;;;;;;16.45;6.70;;;;;;;;;;5011230;28;20679;-63
2023/07/04 03:49:34;;;;;;;15.10;6.17;;;;;;;;;;5012457;28;20109;-62
2023/07/04 03:51:59;;;;;;;10.90;5.87;;;;;;;;;;5010908;28;20445;-62
2023/07/04 03:54:25;;;;;;;8.20;5.15;;;;;;;;;;5012611;28;20389;-63
2023/07/04 03:56:50;;;;;;;16.60;5.67;;;;;;;;;;5010596;28;20040;-62
2023/07/04 03:59:15;;;;;;;12.85;5.97;;;;;;;;;;5012470;28;20474;-63
2023/07/04 04:01:40;;;;;;;12.02;6.57;;;;;;;;;;5010799;28;20034;-62
2023/07/04 04:04:05;;;;;;;10.60;5.72;;;;;;;;;;5011947;28;20469;-62
2023/07/04 04:06:30;;;;;;;15.75;5.47;;;;;;;;;;5010245;28;20074;-63
2023/07/04 04:08:55;;;;;;;19.33;6.90;;;;;;;;;;5012047;28;20028;-63
2023/07/04 04:11:21;;;;;;;10.90;5.75;;;;;;;;;;5010676;28;20548;-65
2023/07/04 04:13:46;;;;;;;12.50;5.57;;;;;;;;;;5011035;28;20010;-63
2023/07/04 04:16:11;;;;;;;6.85;4.70;;;;;;;;;;5010636;28;20022;-61
2023/07/04 04:18:36;;;;;;;8.65;5.28;;;;;;;;;;5011621;28;20072;-62
2023/07/04 04:21:01;;;;;;;8.33;4.97;;;;;;;;;;5011921;28;20018;-62
2023/07/04 04:23:27;;;;;;;22.60;6.97;;;;;;;;;;5009487;28;20492;-61
2023/07/04 04:25:52;;;;;;;13.70;6.63;;;;;;;;;;5011218;28;20030;-62
2023/07/04 04:28:17;;;;;;;11.18;5.72;;;;;;;;;;5010425;28;20465;-60
2023/07/04 04:30:43;;;;;;;12.13;6.75;;;;;;;;;;5011872;28;20488;-60
2023/07/04 04:33:09;;;;;;;9.93;6.47;;;;;;;;;;5010047;28;20133;-60
2023/07/04 04:35:36;;;;;;;9.88;4.70;;;;;;;;;;5011971;28;20033;-60
2023/07/04 04:38:01;;;;;;;12.65;4.72;;;;;;;;;;5009060;28;20440;-61
2023/07/04 04:40:28;;;;;;;17.40;5.00;;;;;;;;;;5010802;28;20017;-60
2023/07/04 04:42:55;;;;;;;13.40;5.60;;;;;;;;;;5009715;28;20040;-62
2023/07/04 04:45:20;;;;;;;11.30;6.28;;;;;;;;;;5010891;28;20034;-61
2023/07/04 04:47:52;;;;;;;7.35;5.07;;;;;;;;;;5009959;28;20045;-61
2023/07/04 04:50:21;;;;;;;13.15;6.18;;;;;;;;;;5011954;28;20112;-60
2023/07/04 04:52:47;;;;;;;13.43;4.40;;;;;;;;;;5010144;28;20034;-60
2023/07/04 04:55:12;;;;;;;12.02;4.68;;;;;;;;;;5011136;28;20029;-60
2023/07/04 04:57:38;;;;;;;14.07;4.00;;;;;;;;;;5010308;28;20045;-60
2023/07/04 05:00:05;;;;;;;10.88;4.65;;;;;;;;;;5011121;28;20022;-60
2023/07/04 05:02:30;;;;;;;10.70;4.45;;;;;;;;;;5006309;28;20175;-61
2023/07/04 05:04:55;;;;;;;6.55;4.63;;;;;;;;;;5009613;28;20112;-61
2023/07/04 05:07:23;;;;;;;12.65;4.00;;;;;;;;;;5007356;28;20046;-60
2023/07/04 05:09:49;;;;;;;7.82;3.20;;;;;;;;;;5009725;28;20037;-60
2023/07/04 05:12:14;;;;;;;10.60;3.87;;;;;;;;;;5008218;28;20037;-60
2023/07/04 05:14:39;;;;;;;12.40;3.60;;;;;;;;;;5010046;28;20437;-61
2023/07/04 05:17:04;;;;;;;7.53;3.73;;;;;;;;;;5008071;28;20111;-60
2023/07/04 05:19:29;;;;;;;9.27;3.53;;;;;;;;;;5010036;28;20026;-60
2023/07/04 05:21:55;;;;;;;5.97;4.05;;;;;;;;;;5008498;28;20819;-61
2023/07/04 05:24:20;;;;;;;13.77;5.28;;;;;;;;;;5009477;28;20038;-61
2023/07/04 05:26:45;;;;;;;13.85;4.57;;;;;;;;;;5008178;28;20124;-60
2023/07/04 05:29:11;;;;;;;10.15;3.67;;;;;;;;;;5009513;28;20447;-61
2023/07/04 05:31:36;;;;;;;12.90;3.97;;;;;;;;;;5008163;28;20044;-60
2023/07/04 05:34:01;;;;;;;14.03;4.23;;;;;;;;;;5010748;28;20045;-61
2023/07/04 05:36:28;;;;;;;21.03;6.77;;;;;;;;;;5009758;28;20014;-61
2023/07/04 05:38:54;;;;;;;9.73;4.65;;;;;;;;;;5010480;28;20022;-61
2023/07/04 05:41:21;;;;;;;8.77;5.05;;;;;;;;;;5009023;28;20018;-61
2023/07/04 05:43:47;;;;;;;17.83;6.30;;;;;;;;;;5010443;28;20021;-61
2023/07/04 05:46:12;;;;;;;15.00;5.20;;;;;;;;;;5008382;28;20018;-60
2023/07/04 05:48:38;;;;;;;14.55;7.03;;;;;;;;;;5010399;28;20368;-61
2023/07/04 05:51:07;;;;;;;12.18;4.93;;;;;;;;;;5010650;28;20080;-61
2023/07/04 05:53:34;;;;;;;18.75;7.07;;;;;;;;;;5009090;28;20541;-61
2023/07/04 05:56:06;;;;;;;13.27;6.65;;;;;;;;;;5010604;28;20022;-61
2023/07/04 05:58:32;;;;;;;17.10;6.68;;;;;;;;;;5009299;28;20501;-61
2023/07/04 06:01:02;;;;;;;14.98;7.60;;;;;;;;;;5010320;28;20028;-61
2023/07/04 06:03:27;;;;;;;15.60;7.55;;;;;;;;;;5007351;28;20197;-61
2023/07/04 06:05:52;;;;;;;12.37;5.57;;;;;;;;;;5008569;28;20511;-61
2023/07/04 06:08:17;;;;;;;26.58;7.03;;;;;;;;;;5008465;28;20062;-61
2023/07/04 06:10:43;;;;;;;21.88;9.05;;;;;;;;;;5010462;28;20014;-61
2023/07/04 06:13:08;;;;;;;16.30;6.83;;;;;;;;;;5009063;28;20064;-61
2023/07/04 06:15:39;;;;;;;24.58;6.82;;;;;;;;;;5010188;28;21018;-61
2023/07/04 06:18:05;;;;;;;17.23;6.43;;;;;;;;;;5008929;28;20117;-61
2023/07/04 06:20:30;;;;;;;22.03;8.40;;;;;;;;;;5010545;28;20184;-61
2023/07/04 06:22:55;;;;;;;16.45;6.50;;;;;;;;;;5008101;28;20038;-61
2023/07/04 06:25:20;;;;;;;29.37;9.40;;;;;;;;;;5010405;28;20483;-61
2023/07/04 06:27:45;;;;;;;16.90;6.07;;;;;;;;;;5008803;28;20041;-61
2023/07/04 06:30:11;;;;;;;15.10;5.73;;;;;;;;;;5009653;28;20370;-61
2023/07/04 06:32:36;;;;;;;19.40;6.72;;;;;;;;;;5009025;28;20046;-61
2023/07/04 06:35:01;;;;;;;21.50;7.80;;;;;;;;;;5010559;28;20041;-60
2023/07/04 06:37:26;;;;;;;20.75;6.75;;;;;;;;;;5008795;28;20045;-60
2023/07/04 06:39:51;;;;;;;20.58;7.60;;;;;;;;;;5009836;28;20029;-61
2023/07/04 06:42:16;;;;;;;17.70;5.20;;;;;;;;;;5010270;28;20041;-60
2023/07/04 06:44:45;;;;;;;14.52;5.72;;;;;;;;;;5014002;28;20057;-61
2023/07/04 06:47:10;;;;;;;16.10;6.72;;;;;;;;;;4992418;28;20038;-61
2023/07/04 06:49:35;;;;;;;13.13;5.68;;;;;;;;;;4994374;28;20022;-61
2023/07/04 06:52:00;;;;;;;16.27;7.60;;;;;;;;;;4992256;28;20042;-60
2023/07/04 06:54:25;;;;;;;34.03;8.70;;;;;;;;;;4993868;28;20026;-60
2023/07/04 06:56:50;;;;;;;21.95;6.03;;;;;;;;;;4992805;28;20041;-61
2023/07/04 06:59:15;;;;;;;16.20;7.38;;;;;;;;;;4994091;28;20031;-60
2023/07/04 07:01:42;;;;;;;14.37;6.60;;;;;;;;;;4992602;28;20074;-61
2023/07/04 07:04:07;;;;;;;17.65;7.82;;;;;;;;;;4993630;28;20018;-59
2023/07/04 07:06:32;;;;;;;19.27;6.63;;;;;;;;;;4992745;28;20054;-61
2023/07/04 07:08:57;;;;;;;15.63;6.47;;;;;;;;;;4993433;28;20393;-60
2023/07/04 07:11:22;;;;;;;12.68;4.88;;;;;;;;;;4992223;28;20573;-60
2023/07/04 07:13:48;;;;;;;14.02;4.93;;;;;;;;;;4993996;28;20025;-61
2023/07/04 07:16:21;;;;;;;18.20;5.55;;;;;;;;;;4992201;28;20042;-60
2023/07/04 07:18:47;;;;;;;21.50;6.28;;;;;;;;;;4993607;28;20101;-60
2023/07/04 07:21:14;;;;;;;16.00;4.78;;;;;;;;;;4992112;28;20178;-60
2023/07/04 07:23:39;;;;;;;20.50;6.38;;;;;;;;;;4993437;28;20033;-60
2023/07/04 07:26:05;;;;;;;22.75;7.80;;;;;;;;;;4993337;28;20010;-60
2023/07/04 07:28:31;;;;;;;23.13;6.80;;;;;;;;;;4992098;28;20050;-61
2023/07/04 07:31:04;;;;;;;19.08;7.10;;;;;;;;;;4992882;28;20732;-61
2023/07/04 07:33:32;;;;;;;20.80;5.68;;;;;;;;;;4992201;28;20121;-60
2023/07/04 07:35:58;;;;;;;18.58;5.78;;;;;;;;;;4993251;28;20026;-61
2023/07/04 07:38:23;;;;;;;14.65;6.00;;;;;;;;;;4991818;28;20405;-61
2023/07/04 07:40:50;;;;;;;24.73;8.97;;;;;;;;;;4993277;28;20030;-61
2023/07/04 07:43:15;;;;;;;15.30;6.15;;;;;;;;;;4991927;28;20049;-61
2023/07/04 07:45:41;;;;;;;15.15;5.57;;;;;;;;;;5000246;28;20021;-61
2023/07/04 07:48:07;;;;;;;27.67;8.52;;;;;;;;;;5010812;28;20065;-60
2023/07/04 07:50:32;;;;;;;14.55;5.63;;;;;;;;;;5012705;28;20029;-60
2023/07/04 07:52:57;;;;;;;22.20;6.55;;;;;;;;;;5010242;28;20030;-60
2023/07/04 07:55:22;;;;;;;17.83;6.65;;;;;;;;;;5012703;28;20112;-61
2023/07/04 07:57:47;;;;;;;15.85;5.85;;;;;;;;;;5011274;28;20034;-60
2023/07/04 08:00:13;;;;;;;23.13;6.23;;;;;;;;;;5012100;28;20029;-61
2023/07/04 08:02:38;;;;;;;13.88;5.43;;;;;;;;;;5010916;28;21030;-61
2023/07/04 08:05:03;;;;;;;16.10;6.53;;;;;;;;;;5012106;28;20048;-61
2023/07/04 08:07:28;;;;;;;20.88;7.30;;;;;;;;;;5010786;28;20520;-60
2023/07/04 08:09:54;;;;;;;22.38;8.05;;;;;;;;;;5012035;28;20112;-61
2023/07/04 08:12:19;;;;;;;18.42;6.55;;;;;;;;;;5010991;28;20072;-61
2023/07/04 08:14:44;;;;;;;31.30;9.27;;;;;;;;;;5011958;28;20025;-60
2023/07/04 08:17:09;;;;;;;24.63;9.30;;;;;;;;;;5010800;28;20038;-61
2023/07/04 08:19:34;;;;;;;13.93;6.40;;;;;;;;;;5010599;28;20448;-60
2023/07/04 08:21:59;;;;;;;17.95;6.18;;;;;;;;;;5009955;28;20042;-60
2023/07/04 08:24:25;;;;;;;14.60;6.18;;;;;;;;;;5011965;28;20028;-60
2023/07/04 08:26:51;;;;;;;14.33;5.33;;;;;;;;;;5010228;28;20120;-60
2023/07/04 08:29:17;;;;;;;17.25;6.25;;;;;;;;;;5011719;28;20419;-60
2023/07/04 08:31:42;;;;;;;21.15;7.13;;;;;;;;;;5009608;28;20113;-60
2023/07/04 08:34:09;;;;;;;18.23;6.33;;;;;;;;;;5011441;28;20022;-60
2023/07/04 08:36:34;;;;;;;23.50;7.38;;;;;;;;;;5011654;28;20452;-60
2023/07/04 08:38:59;;;;;;;30.63;8.63;;;;;;;;;;5010046;28;20038;-60
2023/07/04 08:41:43;;;;;;;31.10;7.67;;;;;;;;;;5011920;28;20595;-60
2023/07/04 08:44:08;;;;;;;16.95;5.25;;;;;;;;;;5009783;28;20820;-60
2023/07/04 08:46:37;;;;;;;19.75;5.63;;;;;;;;;;5011468;28;20384;-60
2023/07/04 08:49:02;;;;;;;18.80;5.35;;;;;;;;;;5010030;28;20108;-60
2023/07/04 08:51:32;;;;;;;14.50;5.75;;;;;;;;;;5011302;28;20097;-61
2023/07/04 08:53:59;;;;;;;18.02;6.18;;;;;;;;;;5009935;28;20038;-60
2023/07/04 08:56:33;;;;;;;24.52;6.43;;;;;;;;;;5011968;28;20076;-60
2023/07/04 08:59:10;;;;;;;28.67;8.52;;;;;;;;;;5009476;28;20547;-61
2023/07/04 09:01:50;;;;;;;14.40;6.80;;;;;;;;;;5011412;28;20029;-62
2023/07/04 09:04:18;;;;;;;23.35;9.52;;;;;;;;;;5009466;28;20057;-60
2023/07/04 09:06:48;;;;;;;12.82;6.25;;;;;;;;;;5011048;28;20366;-61
2023/07/04 09:09:20;;;;;;;22.17;6.85;;;;;;;;;;5009629;28;20068;-60
2023/07/04 09:11:47;;;;;;;14.18;7.50;;;;;;;;;;5011234;28;20022;-60
2023/07/04 09:14:20;;;;;;;24.20;9.13;;;;;;;;;;5008621;28;20033;-61
2023/07/04 09:16:48;;;;;;;15.90;6.38;;;;;;;;;;5011097;28;20033;-60
2023/07/04 09:19:13;;;;;;;;;;;;;;;;;;5010127;28;20041;-60
2023/07/04 09:21:39;;;;;;;13.13;5.18;;;;;;;;;;5010780;28;19909;-60
2023/07/04 09:24:05;;;;;;;15.82;7.85;;;;;;;;;;5009409;28;20492;-60
2023/07/04 09:26:36;;;;;;;16.45;5.85;;;;;;;;;;5009626;28;20040;-60
2023/07/04 09:29:03;;;;;;;8.77;4.00;;;;;;;;;;5007172;28;20202;-60
2023/07/04 09:31:30;;;;;;;9.15;5.85;;;;;;;;;;4998591;28;20635;-59
2023/07/04 09:33:55;;;;;;;16.35;5.10;;;;;;;;;;4988918;28;20019;-60
2023/07/04 09:36:21;;;;;;;10.20;5.10;;;;;;;;;;4987560;28;20372;-60
2023/07/04 09:38:51;;;;;;;14.73;4.32;;;;;;;;;;4989465;28;20538;-60
2023/07/04 09:41:17;;;;;;;17.52;6.28;;;;;;;;;;4989611;28;20034;-59
2023/07/04 09:43:42;;;;;;;12.13;5.03;;;;;;;;;;4990876;28;20022;-60
2023/07/04 09:46:22;;;;;;;15.50;4.25;;;;;;;;;;5002096;28;20068;-60
2023/07/04 09:48:48;;;;;;;13.90;5.60;;;;;;;;;;5009695;28;20461;-60
2023/07/04 09:51:16;;;;;;;9.65;4.15;;;;;;;;;;5008691;28;20057;-59
2023/07/04 09:53:41;;;;;;;15.52;5.78;;;;;;;;;;5010893;28;20022;-60
2023/07/04 09:56:06;;;;;;;15.37;5.43;;;;;;;;;;5010744;28;20010;-61
2023/07/04 09:58:32;;;;;;;9.03;4.07;;;;;;;;;;5009121;28;20499;-60
2023/07/04 10:01:14;;;;;;;10.85;5.10;;;;;;;;;;5010669;28;20086;-60
2023/07/04 10:03:40;;;;;;;9.98;5.20;;;;;;;;;;5008171;28;20423;-60
2023/07/04 10:06:06;;;;;;;14.77;6.60;;;;;;;;;;5010134;28;20038;-60
2023/07/04 10:08:33;;;;;;;13.80;8.40;;;;;;;;;;5009184;28;20093;-60
2023/07/04 10:10:59;;;;;;;9.13;4.55;;;;;;;;;;5008957;28;20029;-60
2023/07/04 10:13:42;;;;;;;9.52;5.43;;;;;;;;;;5007771;28;20489;-60
2023/07/04 10:16:33;;;;;;;19.50;6.35;;;;;;;;;;5010279;28;20469;-60
2023/07/04 10:19:03;;;;;;;8.68;4.20;;;;;;;;;;5010227;28;20065;-60
2023/07/04 10:21:28;;;;;;;15.25;6.25;;;;;;;;;;5010934;28;20021;-60
2023/07/04 10:23:53;;;;;;;9.23;4.57;;;;;;;;;;5013382;28;20066;-60
2023/07/04 10:26:19;;;;;;;13.18;6.00;;;;;;;;;;5012343;28;20064;-59
2023/07/04 10:28:47;;;;;;;9.60;5.03;;;;;;;;;;5012025;28;20046;-60
2023/07/04 10:31:17;;;;;;;14.68;5.15;;;;;;;;;;5012121;28;20028;-59
2023/07/04 10:33:44;;;;;;;10.20;4.00;;;;;;;;;;5012819;28;20032;-59
2023/07/04 10:36:12;;;;;;;7.28;3.97;;;;;;;;;;5011991;28;20022;-60
2023/07/04 10:38:41;;;;;;;14.40;4.20;;;;;;;;;;5010968;28;20048;-60
2023/07/04 10:41:13;;;;;;;10.40;3.70;;;;;;;;;;5013363;28;20022;-60
2023/07/04 10:43:40;;;;;;;9.38;3.20;;;;;;;;;;5010968;28;20041;-60
2023/07/04 10:46:08;;;;;;;10.45;3.13;;;;;;;;;;5012835;28;20030;-60
2023/07/04 10:48:34;;;;;;;16.85;5.15;;;;;;;;;;5010317;28;20417;-60
2023/07/04 10:51:12;;;;;;;11.27;4.43;;;;;;;;;;5011811;28;20029;-60
2023/07/04 10:53:37;;;;;;;10.63;3.15;;;;;;;;;;5011147;28;20424;-60
2023/07/04 10:56:05;;;;;;;12.63;5.23;;;;;;;;;;5012985;28;20029;-60
2023/07/04 10:58:33;;;;;;;6.82;2.75;;;;;;;;;;5010250;28;20448;-60
2023/07/04 11:01:01;;;;;;;12.82;3.75;;;;;;;;;;5013143;28;20471;-60
2023/07/04 11:03:26;;;;;;;;;;;;;;;;;;5012494;28;20177;-61
2023/07/04 11:05:53;;;;;;;11.35;3.10;;;;;;;;;;5012573;28;19988;-60
2023/07/04 11:08:20;;;;;;;15.85;4.95;;;;;;;;;;5011801;28;20077;-60
2023/07/04 11:10:48;;;;;;;20.05;3.63;;;;;;;;;;5013231;28;20025;-60
2023/07/04 11:13:15;;;;;;;5.60;2.28;;;;;;;;;;5010934;28;20500;-60
2023/07/04 11:15:42;;;;;;;9.15;4.70;;;;;;;;;;5013168;28;20018;-60
2023/07/04 11:18:09;;;;;;;8.82;2.60;;;;;;;;;;5011439;28;20045;-60
2023/07/04 11:20:38;;;;;;;6.40;3.30;;;;;;;;;;5012743;28;20021;-60
2023/07/04 11:23:11;;;;;;;12.95;2.88;;;;;;;;;;5011126;28;20042;-60
2023/07/04 11:25:46;;;;;;;10.60;4.03;;;;;;;;;;5012939;28;20489;-60
2023/07/04 11:28:16;;;;;;;8.15;3.30;;;;;;;;;;5010129;28;20049;-60
2023/07/04 11:30:42;;;;;;;13.52;3.83;;;;;;;;;;5012804;28;20028;-60
2023/07/04 11:33:07;;;;;;;8.90;3.65;;;;;;;;;;5011215;28;20509;-60
2023/07/04 11:35:33;;;;;;;13.32;2.78;;;;;;;;;;5012331;28;20014;-59
2023/07/04 11:38:05;;;;;;;6.65;2.40;;;;;;;;;;5010882;28;20061;-60
2023/07/04 11:40:50;;;;;;;11.57;4.68;;;;;;;;;;5012578;28;20397;-60
2023/07/04 11:43:21;;;;;;;12.30;3.42;;;;;;;;;;5010389;28;20120;-60
2023/07/04 11:45:46;;;;;;;11.55;4.35;;;;;;;;;;5012798;28;20096;-60
2023/07/04 11:48:15;;;;;;;9.80;3.15;;;;;;;;;;5010646;28;20113;-60
2023/07/04 11:50:42;;;;;;;11.65;3.20;;;;;;;;;;5011972;28;20022;-61
2023/07/04 11:53:13;;;;;;;13.45;4.00;;;;;;;;;;5010783;28;20400;-60
2023/07/04 11:55:38;;;;;;;7.90;3.60;;;;;;;;;;5012361;28;20022;-60
2023/07/04 11:58:03;;;;;;;3.38;1.75;;;;;;;;;;5010323;28;20038;-60
2023/07/04 12:00:30;;;;;;;7.55;2.65;;;;;;;;;;5012085;28;20040;-60
2023/07/04 12:02:55;;;;;;;6.68;3.00;;;;;;;;;;5010501;28;20497;-60
2023/07/04 12:05:30;;;;;;;9.33;3.30;;;;;;;;;;5009222;28;20054;-60
2023/07/04 12:07:59;;;;;;;10.60;2.70;;;;;;;;;;5010162;28;20121;-60
2023/07/04 12:10:27;;;;;;;13.55;5.35;;;;;;;;;;5011701;28;20096;-60
2023/07/04 12:13:01;;;;;;;10.25;2.78;;;;;;;;;;5009934;28;20096;-60
2023/07/04 12:15:30;;;;;;;9.82;3.78;;;;;;;;;;5011822;28;20025;-60
2023/07/04 12:17:58;;;;;;;10.35;3.83;;;;;;;;;;5009920;28;20041;-60
2023/07/04 12:20:23;;;;;;;;;;;;;;;;;;5011784;28;20535;-60
2023/07/04 12:22:51;;;;;;;8.90;3.05;;;;;;;;;;5010006;28;20368;-60
2023/07/04 12:25:34;;;;;;;8.50;3.15;;;;;;;;;;5011917;28;20025;-60
2023/07/04 12:28:03;;;;;;;6.70;3.45;;;;;;;;;;5009780;28;20121;-60
2023/07/04 12:30:28;;;;;;;7.18;3.10;;;;;;;;;;5011923;28;20014;-60
2023/07/04 12:32:53;;;;;;;6.00;3.17;;;;;;;;;;5009651;28;20117;-60
2023/07/04 12:35:22;;;;;;;7.13;3.20;;;;;;;;;;5012003;28;20026;-60
2023/07/04 12:37:50;;;;;;;8.68;2.92;;;;;;;;;;5010035;28;20453;-60
2023/07/04 12:40:17;;;;;;;6.50;3.10;;;;;;;;;;5010951;28;20075;-60
2023/07/04 12:42:43;;;;;;;8.48;3.55;;;;;;;;;;5010111;28;20042;-60
2023/07/04 12:45:09;;;;;;;5.95;2.33;;;;;;;;;;5011238;28;20548;-60
2023/07/04 12:47:35;;;;;;;9.73;2.60;;;;;;;;;;5009685;28;20038;-60
2023/07/04 12:50:01;;;;;;;8.57;3.65;;;;;;;;;;5010988;28;20010;-60
2023/07/04 12:52:30;;;;;;;14.65;3.95;;;;;;;;;;5009924;28;20041;-60
2023/07/04 12:54:57;;;;;;;8.27;3.75;;;;;;;;;;5010695;28;20010;-60
2023/07/04 12:57:24;;;;;;;9.50;3.83;;;;;;;;;;5009772;28;20061;-60
2023/07/04 12:59:50;;;;;;;9.50;3.20;;;;;;;;;;5011101;28;20111;-60
2023/07/04 13:02:27;;;;;;;8.43;3.17;;;;;;;;;;5009847;28;20636;-60
2023/07/04 13:04:55;;;;;;;5.53;1.93;;;;;;;;;;5010709;28;20049;-60
2023/07/04 13:07:21;;;;;;;6.05;3.40;;;;;;;;;;5009713;28;20042;-60
2023/07/04 13:09:51;;;;;;;16.25;3.40;;;;;;;;;;5010919;28;20049;-61
2023/07/04 13:12:16;;;;;;;;;;;;;;;;;;5010152;28;20040;-60
2023/07/04 13:14:41;;;;;;;7.95;2.42;;;;;;;;;;5010986;28;19988;-60
2023/07/04 13:17:08;;;;;;;11.93;3.63;;;;;;;;;;5008888;28;20033;-60
2023/07/04 13:19:33;;;;;;;5.75;2.30;;;;;;;;;;5010358;28;20995;-60
2023/07/04 13:22:10;;;;;;;10.45;3.20;;;;;;;;;;5009336;28;20037;-60
2023/07/04 13:24:36;;;;;;;8.88;3.38;;;;;;;;;;5010555;28;20021;-60
2023/07/04 13:27:10;;;;;;;8.93;2.55;;;;;;;;;;5009173;28;20041;-60
2023/07/04 13:29:35;;;;;;;7.80;2.40;;;;;;;;;;5010830;28;20117;-60
2023/07/04 13:32:00;;;;;;;8.50;3.70;;;;;;;;;;5008652;28;20121;-60
2023/07/04 13:34:30;;;;;;;5.80;2.67;;;;;;;;;;5010779;28;20452;-60
2023/07/04 13:37:04;;;;;;;12.27;3.00;;;;;;;;;;5009188;28;20034;-60
2023/07/04 13:39:30;;;;;;;9.10;2.72;;;;;;;;;;5010523;28;20092;-60
2023/07/04 13:41:56;;;;;;;5.93;3.20;;;;;;;;;;5009098;28;20445;-60
2023/07/04 13:44:21;;;;;;;11.75;3.88;;;;;;;;;;5010603;28;20022;-60
2023/07/04 13:46:46;;;;;;;10.00;3.15;;;;;;;;;;5008862;28;20038;-60
2023/07/04 13:49:12;;;;;;;10.40;3.47;;;;;;;;;;5010383;28;20022;-60
2023/07/04 13:51:37;;;;;;;6.90;2.55;;;;;;;;;;5010917;28;20476;-60
2023/07/04 13:54:04;;;;;;;8.68;3.38;;;;;;;;;;5014338;28;20022;-60
2023/07/04 13:56:29;;;;;;;11.77;3.92;;;;;;;;;;5013090;28;20091;-60
2023/07/04 13:58:54;;;;;;;6.53;2.60;;;;;;;;;;5014352;28;20458;-60
2023/07/04 14:01:19;;;;;;;6.47;2.45;;;;;;;;;;5011060;28;20014;-60
2023/07/04 14:03:45;;;;;;;5.85;3.25;;;;;;;;;;5013571;28;20677;-60
2023/07/04 14:06:10;;;;;;;7.22;2.50;;;;;;;;;;5013894;28;20085;-60
2023/07/04 14:08:36;;;;;;;6.77;3.00;;;;;;;;;;5011687;28;20128;-61
2023/07/04 14:11:03;;;;;;;6.38;3.25;;;;;;;;;;5013731;28;20477;-61
2023/07/04 14:13:29;;;;;;;9.35;2.88;;;;;;;;;;5012800;28;20034;-61
2023/07/04 14:15:55;;;;;;;9.30;2.15;;;;;;;;;;5013944;28;20017;-61
2023/07/04 14:18:20;;;;;;;4.80;2.65;;;;;;;;;;5012502;28;20057;-61
2023/07/04 14:20:46;;;;;;;7.25;3.30;;;;;;;;;;5013892;28;20104;-61
2023/07/04 14:23:11;;;;;;;10.47;2.23;;;;;;;;;;5012220;28;20037;-61
2023/07/04 14:25:36;;;;;;;4.78;2.50;;;;;;;;;;5013927;28;20037;-61
2023/07/04 14:28:01;;;;;;;5.22;2.20;;;;;;;;;;5012341;28;20550;-61
2023/07/04 14:30:26;;;;;;;7.87;2.70;;;;;;;;;;5013998;28;20068;-61
2023/07/04 14:32:51;;;;;;;2.88;2.03;;;;;;;;;;5011786;28;20440;-61
2023/07/04 14:35:16;;;;;;;6.28;2.20;;;;;;;;;;5013937;28;20029;-60